Time;durP1;ratioP1;P1;durP2;ratioP2;P2;SDS_P1;SDS_P2;PMS_P1;PMS_P2;Temp;Humidity;BMP_temperature;BMP_pressure;BME280_temperature;BME280_humidity;BME280_pressure;Samples;Min_cycle;Max_cycle;Signal;HPM_P1;HPM_P2
2022/01/14 00:00:56;;;;;;;;;77.50;62.50;;;;;0.64;77.91;101300.13;5103156;27;45503;-78
2022/01/14 00:03:21;;;;;;;;;52.75;33.25;;;;;0.61;78.06;101308.69;5104732;27;45426;-77
2022/01/14 00:05:46;;;;;;;;;81.50;61.50;;;;;0.59;78.25;101307.72;5110350;27;46261;-78
2022/01/14 00:08:12;;;;;;;;;80.25;60.25;;;;;0.57;77.92;101309.41;5105792;27;45421;-78
2022/01/14 00:10:40;;;;;;;;;77.00;62.00;;;;;0.57;78.17;101303.31;5103189;27;45546;-78
2022/01/14 00:13:14;;;;;;;;;83.50;62.75;;;;;0.57;78.29;101303.31;5106141;27;45460;-78
2022/01/14 00:15:40;;;;;;;;;78.50;63.00;;;;;0.55;78.64;101307.56;5115656;27;45703;-78
2022/01/14 00:18:05;;;;;;;;;77.50;61.00;;;;;0.53;78.65;101304.91;5108593;27;45466;-77
2022/01/14 00:20:31;;;;;;;;;84.25;63.25;;;;;0.52;78.90;101304.84;5108266;27;45232;-78
2022/01/14 00:22:56;;;;;;;;;80.00;61.50;;;;;0.49;78.80;101300.47;5104097;27;45378;-77
2022/01/14 00:33:28;;;;;;;;;80.25;62.00;;;;;0.45;79.32;101298.59;5118134;27;45424;-78
2022/01/14 00:35:54;;;;;;;;;82.25;61.50;;;;;0.45;79.32;101300.28;5107556;27;45677;-77
2022/01/14 00:38:20;;;;;;;;;79.00;59.50;;;;;0.43;79.28;101299.34;5106498;27;45436;-76
2022/01/14 00:40:45;;;;;;;;;78.75;61.25;;;;;0.40;79.62;101297.53;5103375;27;45424;-76
2022/01/14 00:43:12;;;;;;;;;75.75;58.25;;;;;0.41;79.28;101299.31;5092045;27;45418;-76
2022/01/14 00:45:39;;;;;;;;;76.75;60.25;;;;;0.42;79.48;101297.59;5096287;27;45457;-77
2022/01/14 00:48:05;;;;;;;;;74.50;58.75;;;;;0.40;79.24;101294.06;5103810;27;45469;-76
2022/01/14 00:50:33;;;;;;;;;72.50;59.50;;;;;0.40;79.51;101288.88;5107508;27;45335;-77
2022/01/14 00:52:59;;;;;;;;;74.75;59.75;;;;;0.40;79.34;101291.47;5091643;27;45575;-77
2022/01/14 00:55:39;;;;;;;;;76.75;60.25;;;;;0.40;79.43;101294.06;5106603;27;45419;-76
2022/01/14 01:00:49;;;;;;;;;77.00;59.00;;;;;0.38;79.57;101291.41;5098816;27;45384;-77
2022/01/14 01:03:14;;;;;;;;;73.25;59.75;;;;;0.36;79.52;101285.28;5091271;27;45445;-77
2022/01/14 01:05:40;;;;;;;;;74.75;61.00;;;;;0.35;79.71;101294.75;5110500;27;45461;-77
2022/01/14 01:08:10;;;;;;;;;72.00;56.50;;;;;0.31;79.68;101297.22;5100733;27;46136;-76
2022/01/14 01:10:39;;;;;;;;;73.25;57.25;;;;;0.28;79.77;101291.91;5097416;27;45426;-77
2022/01/14 01:13:15;;;;;;;;;74.00;58.00;;;;;0.26;79.90;101296.16;5101964;27;45339;-77
2022/01/14 01:15:41;;;;;;;;;69.25;54.25;;;;;0.26;79.93;101303.94;5116841;27;45367;-77
2022/01/14 01:18:06;;;;;;;;;82.25;64.75;;;;;0.24;79.88;101310.78;5104938;27;45369;-77
2022/01/14 01:20:32;;;;;;;;;80.00;60.50;;;;;0.24;79.98;101303.00;5101328;27;45570;-77
2022/01/14 01:22:57;;;;;;;;;82.00;59.50;;;;;0.23;79.94;101296.94;5102670;27;45431;-77
2022/01/14 01:25:27;;;;;;;;;70.50;56.00;;;;;0.26;80.32;101307.41;5116372;27;45489;-76
2022/01/14 01:27:54;;;;;;;;;78.00;61.50;;;;;0.23;80.03;101309.00;5105239;27;45509;-76
2022/01/14 01:30:49;;;;;;;;;76.75;60.75;;;;;0.24;80.34;101314.25;5117596;27;45362;-77
2022/01/14 01:33:13;;;;;;;;;72.25;54.75;;;;;0.21;80.05;101314.13;5103823;27;45588;-77
2022/01/14 01:35:39;;;;;;;;;76.50;59.50;;;;;0.21;80.12;101315.84;5114092;27;45574;-76
2022/01/14 01:38:04;;;;;;;;;77.25;62.00;;;;;0.19;80.19;101315.78;5115759;27;45466;-77
2022/01/14 01:40:30;;;;;;;;;66.25;56.50;;;;;0.18;80.15;101323.50;5085483;27;45563;-76
2022/01/14 01:43:02;;;;;;;;;77.25;62.50;;;;;0.19;80.32;101325.28;5116554;27;45367;-76
2022/01/14 01:45:27;;;;;;;;;66.25;54.75;;;;;0.15;80.03;101319.13;5116088;27;46557;-77
2022/01/14 01:47:54;;;;;;;;;72.00;57.50;;;;;0.17;80.06;101326.97;5103865;27;45515;-76
2022/01/14 01:50:28;;;;;;;;;78.25;61.75;;;;;0.15;80.03;101321.72;5115134;27;45540;-76
2022/01/14 01:52:55;;;;;;;;;72.00;57.00;;;;;0.16;80.41;101317.41;5101095;27;45512;-77
2022/01/14 01:55:22;;;;;;;;;65.00;51.75;;;;;0.14;80.35;101319.06;5115683;27;45704;-76
2022/01/14 01:57:49;;;;;;;;;81.25;60.75;;;;;0.11;80.57;101317.22;5096845;27;45338;-77
2022/01/14 02:00:18;;;;;;;;;76.50;59.25;;;;;0.11;80.69;101321.53;5116828;27;45494;-77
2022/01/14 02:02:46;;;;;;;;;74.00;58.25;;;;;0.08;80.71;101322.31;5112653;27;45493;-77
2022/01/14 02:05:12;;;;;;;;;79.50;60.25;;;;;0.07;80.70;101322.25;5102582;27;45548;-76
2022/01/14 02:07:39;;;;;;;;;80.00;59.50;;;;;0.05;80.65;101319.59;5097729;27;45859;-76
2022/01/14 02:10:06;;;;;;;;;71.25;55.75;;;;;0.01;80.90;101312.50;5095036;27;45524;-77
2022/01/14 02:12:37;;;;;;;;;70.75;58.25;;;;;-0.02;80.63;101315.00;5097511;27;45405;-77
2022/01/14 02:15:09;;;;;;;;;73.25;60.25;;;;;-0.01;81.04;101324.56;5114689;27;45399;-77
2022/01/14 02:23:07;;;;;;;;;73.50;59.00;;;;;-0.06;80.99;101313.13;5099059;27;45232;-77
2022/01/14 02:25:33;;;;;;;;;73.50;59.25;;;;;-0.04;81.15;101314.06;5087879;27;47189;-77
2022/01/14 02:28:01;;;;;;;;;75.50;59.75;;;;;-0.05;80.97;101320.97;5103730;27;45439;-77
2022/01/14 02:30:29;;;;;;;;;78.00;61.00;;;;;-0.05;80.78;101323.56;5116495;27;45375;-77
2022/01/14 02:32:54;;;;;;;;;79.00;61.25;;;;;-0.05;81.13;101314.91;5101900;27;45441;-77
2022/01/14 02:35:20;;;;;;;;;73.75;55.00;;;;;-0.08;81.07;101310.47;5116162;27;46129;-77
2022/01/14 02:37:46;;;;;;;;;72.25;58.25;;;;;-0.08;81.16;101305.28;5115976;27;45317;-77
2022/01/14 02:40:12;;;;;;;;;80.75;58.25;;;;;-0.11;81.44;101307.75;5104666;27;45586;-77
2022/01/14 02:42:38;;;;;;;;;76.25;59.25;;;;;-0.14;81.38;101304.16;5097004;27;45530;-77
2022/01/14 02:45:07;;;;;;;;;77.50;60.50;;;;;-0.13;81.40;101305.94;5106454;27;45393;-77
2022/01/14 02:47:33;;;;;;;;;88.00;64.25;;;;;-0.17;81.10;101304.06;5099189;27;45535;-77
2022/01/14 02:49:58;;;;;;;;;76.00;59.00;;;;;-0.19;81.30;101298.81;5095825;27;45485;-77
2022/01/14 02:52:41;;;;;;;;;69.25;52.75;;;;;-0.21;81.54;101295.28;5091464;27;45444;-77
2022/01/14 02:55:17;;;;;;;;;77.00;60.50;;;;;-0.21;81.72;101300.47;5095724;27;45749;-77
2022/01/14 02:57:45;;;;;;;;;80.00;62.25;;;;;-0.22;81.48;101303.00;5103785;27;45459;-77
2022/01/14 03:00:12;;;;;;;;;70.50;54.50;;;;;-0.24;81.41;101302.06;5110983;27;45471;-77
2022/01/14 03:02:42;;;;;;;;;72.25;58.25;;;;;-0.26;81.66;101299.41;5108882;27;45332;-77
2022/01/14 03:05:08;;;;;;;;;78.75;58.75;;;;;-0.26;81.45;101296.81;5101756;27;46286;-77
2022/01/14 03:07:35;;;;;;;;;78.50;60.50;;;;;-0.27;81.79;101300.22;5105239;27;45460;-77
2022/01/14 03:10:00;;;;;;;;;76.75;57.25;;;;;-0.26;81.65;101290.75;5112774;27;45348;-77
2022/01/14 03:12:26;;;;;;;;;71.75;55.50;;;;;-0.28;81.74;101285.50;5096233;27;45567;-77
2022/01/14 03:14:53;;;;;;;;;73.75;57.00;;;;;-0.26;81.53;101277.78;5111793;27;45377;-77
2022/01/14 03:17:19;;;;;;;;;77.00;57.50;;;;;-0.27;81.56;101281.19;5094626;27;45427;-77
2022/01/14 03:19:46;;;;;;;;;75.00;57.75;;;;;-0.29;81.79;101272.47;5106388;27;45454;-77
2022/01/14 03:22:20;;;;;;;;;71.00;54.00;;;;;-0.29;81.67;101269.88;5115921;27;45535;-77
2022/01/14 03:27:12;;;;;;;;;72.50;59.75;;;;;-0.28;82.04;101262.19;5106541;27;45496;-77
2022/01/14 03:29:37;;;;;;;;;74.25;57.50;;;;;-0.28;81.90;101258.69;5111379;27;45478;-77
2022/01/14 03:32:03;;;;;;;;;74.50;58.75;;;;;-0.29;81.81;101262.13;5094869;27;45416;-77
2022/01/14 03:34:30;;;;;;;;;68.00;57.50;;;;;-0.30;81.83;101260.34;5108740;27;46635;-77
2022/01/14 03:36:55;;;;;;;;;70.25;57.25;;;;;-0.31;82.12;101259.47;5103996;27;45396;-77
2022/01/14 03:39:21;;;;;;;;;73.00;54.75;;;;;-0.33;81.94;101253.34;5112661;27;45376;-77
2022/01/14 03:41:47;;;;;;;;;35.75;27.75;;;;;-0.34;81.98;101249.00;5104725;27;45458;-77
2022/01/14 03:44:13;;;;;;;;;67.75;54.50;;;;;-0.35;81.99;101252.41;5112238;27;46381;-77
2022/01/14 03:46:38;;;;;;;;;75.50;55.75;;;;;-0.33;81.79;101250.75;5114000;27;45526;-77
2022/01/14 03:49:04;;;;;;;;;66.25;49.75;;;;;-0.34;81.91;101251.59;5109512;27;45377;-77
2022/01/14 03:51:29;;;;;;;;;71.00;54.00;;;;;-0.34;81.84;101253.31;5104514;27;45547;-76
2022/01/14 03:53:55;;;;;;;;;69.75;56.50;;;;;-0.35;82.04;101249.84;5111627;27;45467;-77
2022/01/14 03:56:25;;;;;;;;;68.00;54.50;;;;;-0.37;82.16;101248.88;5114812;27;45425;-77
2022/01/14 03:58:53;;;;;;;;;72.50;52.75;;;;;-0.35;82.05;101252.41;5089865;27;45371;-77
2022/01/14 04:01:19;;;;;;;;;73.25;55.75;;;;;-0.37;82.32;101254.06;5106062;27;45479;-77
2022/01/14 04:03:46;;;;;;;;;63.75;51.50;;;;;-0.38;81.74;101252.31;5096142;27;45427;-76
2022/01/14 04:06:13;;;;;;;;;71.50;57.25;;;;;-0.40;82.08;101243.59;5095721;27;45379;-76
2022/01/14 04:08:39;;;;;;;;;68.50;55.25;;;;;-0.39;82.08;101246.22;5108887;27;45599;-77
2022/01/14 04:11:05;;;;;;;;;65.50;54.50;;;;;-0.38;82.16;101244.53;5119054;27;45471;-76
2022/01/14 04:13:53;;;;;;;;;76.25;58.25;;;;;-0.38;82.21;101247.13;5113089;27;46714;-77
2022/01/14 04:16:22;;;;;;;;;72.75;55.75;;;;;-0.39;82.18;101251.41;5097317;27;45478;-77
2022/01/14 04:18:49;;;;;;;;;73.00;57.25;;;;;-0.40;82.19;101244.47;5110395;27;45435;-77
2022/01/14 04:21:15;;;;;;;;;72.50;56.00;;;;;-0.40;82.13;101243.59;5099805;27;45383;-77
2022/01/14 04:23:40;;;;;;;;;75.50;57.25;;;;;-0.42;82.22;101245.22;5091056;27;47620;-76
2022/01/14 04:26:06;;;;;;;;;64.00;52.50;;;;;-0.43;82.36;101239.16;5113608;27;45439;-77
2022/01/14 04:28:36;;;;;;;;;68.25;55.50;;;;;-0.43;82.16;101233.09;5116206;27;45383;-77
2022/01/14 04:31:03;;;;;;;;;74.50;56.50;;;;;-0.46;82.22;101231.28;5117768;27;45536;-76
2022/01/14 04:33:31;;;;;;;;;76.50;58.00;;;;;-0.48;82.00;101229.44;5118162;27;46162;-77
2022/01/14 04:35:58;;;;;;;;;77.75;57.00;;;;;-0.48;82.27;101227.72;5104369;27;45361;-77
2022/01/14 04:38:25;;;;;;;;;82.00;60.50;;;;;-0.47;82.33;101228.63;5117045;27;45386;-77
2022/01/14 04:40:51;;;;;;;;;64.50;51.00;;;;;-0.48;82.39;101229.44;5117638;27;45439;-77
2022/01/14 04:43:19;;;;;;;;;72.50;54.00;;;;;-0.49;81.97;101231.16;5113338;27;45884;-77
2022/01/14 04:46:12;;;;;;;;;74.00;59.00;;;;;-0.52;82.10;101225.00;5110391;27;45439;-76
2022/01/14 04:48:38;;;;;;;;;69.50;56.50;;;;;-0.55;82.10;101223.16;5110550;27;45480;-76
2022/01/14 04:51:08;;;;;;;;;78.00;59.50;;;;;-0.56;82.11;101218.81;5110557;27;45474;-77
2022/01/14 04:53:34;;;;;;;;;78.00;61.00;;;;;-0.56;82.53;101218.81;5105580;27;45738;-77
2022/01/14 04:56:00;;;;;;;;;69.50;57.25;;;;;-0.59;82.07;101221.28;5118089;27;45499;-77
2022/01/14 04:58:28;;;;;;;;;77.25;61.00;;;;;-0.58;82.42;101214.38;5118087;27;45600;-76
2022/01/14 05:00:54;;;;;;;;;69.50;55.25;;;;;-0.62;82.51;101218.56;5109999;27;45510;-77
2022/01/14 05:03:20;;;;;;;;;80.50;61.00;;;;;-0.63;82.56;101218.50;5111590;27;46276;-77
2022/01/14 05:05:49;;;;;;;;;66.75;52.00;;;;;-0.66;82.60;101214.06;5090371;27;45423;-77
2022/01/14 05:08:25;;;;;;;;;75.00;59.75;;;;;-0.67;82.43;101227.84;5110078;27;45451;-77
2022/01/14 05:13:24;;;;;;;;;69.25;55.50;;;;;-0.72;82.86;101219.94;5096943;27;45418;-77
2022/01/14 05:15:50;;;;;;;;;74.50;57.50;;;;;-0.73;82.73;101206.91;5096741;27;45403;-77
2022/01/14 05:18:16;;;;;;;;;78.50;57.75;;;;;-0.74;83.08;101207.75;5099359;27;45422;-77
2022/01/14 05:20:41;;;;;;;;;68.25;54.50;;;;;-0.75;82.81;101212.03;5096285;27;45501;-77
2022/01/14 05:23:07;;;;;;;;;62.50;47.00;;;;;-0.75;82.64;101212.03;5091324;27;47309;-77
2022/01/14 05:25:32;;;;;;;;;72.75;56.00;;;;;-0.75;83.00;101217.22;5089246;27;45396;-77
2022/01/14 05:27:58;;;;;;;;;73.00;56.25;;;;;-0.76;82.94;101215.44;5116529;27;45593;-77
2022/01/14 05:30:24;;;;;;;;;74.50;60.00;;;;;-0.78;83.16;101217.09;5117332;27;45456;-77
2022/01/14 05:32:52;;;;;;;;;71.25;56.75;;;;;-0.76;83.02;101218.03;5102456;27;46365;-77
2022/01/14 05:35:24;;;;;;;;;67.25;51.00;;;;;-0.78;83.08;101213.63;5096451;27;45338;-77
2022/01/14 05:37:50;;;;;;;;;74.50;58.25;;;;;-0.78;83.16;101224.84;5114709;27;45428;-77
2022/01/14 05:40:17;;;;;;;;;69.50;56.25;;;;;-0.78;83.14;101219.69;5105033;27;45443;-77
2022/01/14 05:42:43;;;;;;;;;68.25;55.50;;;;;-0.77;83.12;101220.56;5097752;27;46469;-77
2022/01/14 05:45:11;;;;;;;;;71.75;57.50;;;;;-0.79;83.18;101225.69;5099559;27;45430;-77
2022/01/14 05:47:39;;;;;;;;;74.00;55.00;;;;;-0.80;83.45;101228.19;5111121;27;45465;-77
2022/01/14 05:50:11;;;;;;;;;69.50;55.75;;;;;-0.81;83.34;101221.25;5104215;27;45486;-77
2022/01/14 05:52:36;;;;;;;;;76.00;56.75;;;;;-0.84;83.42;101218.56;5102722;27;45592;-77
2022/01/14 05:55:02;;;;;;;;;79.25;61.25;;;;;-0.85;83.33;101211.63;5116839;27;45411;-77
2022/01/14 05:57:28;;;;;;;;;68.50;56.25;;;;;-0.84;83.31;101214.25;5102884;27;45472;-77
2022/01/14 05:59:53;;;;;;;;;73.75;57.00;;;;;-0.84;83.22;101213.41;5116534;27;45460;-77
2022/01/14 06:02:19;;;;;;;;;77.25;59.50;;;;;-0.82;83.25;101219.47;5111360;27;46039;-77
2022/01/14 06:04:45;;;;;;;;;76.50;58.75;;;;;-0.81;83.34;101210.91;5097997;27;45402;-77
2022/01/14 06:07:10;;;;;;;;;77.50;59.50;;;;;-0.80;83.62;101223.03;5108673;27;45509;-77
2022/01/14 06:09:36;;;;;;;;;68.75;56.50;;;;;-0.82;83.54;101217.78;5109839;27;45493;-77
2022/01/14 06:12:02;;;;;;;;;77.50;57.50;;;;;-0.82;83.34;101216.91;5115683;27;46710;-77
2022/01/14 06:14:28;;;;;;;;;69.75;55.75;;;;;-0.82;83.19;101222.06;5116232;27;45473;-78
2022/01/14 06:16:53;;;;;;;;;67.00;54.75;;;;;-0.86;83.30;101227.97;5093951;27;45349;-77
2022/01/14 06:19:18;;;;;;;;;66.25;54.00;;;;;-0.85;83.44;101225.47;5111242;27;45220;-77
2022/01/14 06:21:44;;;;;;;;;69.25;56.00;;;;;-0.87;83.32;101223.63;5096960;27;46001;-77
2022/01/14 06:24:09;;;;;;;;;68.00;55.50;;;;;-0.86;83.59;101234.03;5108271;27;45228;-78
2022/01/14 06:26:35;;;;;;;;;79.00;59.50;;;;;-0.88;83.33;101225.31;5115901;27;45453;-77
2022/01/14 06:29:00;;;;;;;;;62.75;52.50;;;;;-0.88;83.48;101229.63;5114591;27;45456;-77
2022/01/14 06:31:26;;;;;;;;;74.50;55.75;;;;;-0.89;83.36;101227.84;5114909;27;46341;-77
2022/01/14 06:33:51;;;;;;;;;68.75;55.00;;;;;-0.88;83.55;101227.91;5115725;27;45529;-77
2022/01/14 06:36:17;;;;;;;;;70.50;57.00;;;;;-0.88;83.58;101227.91;5110602;27;45344;-77
2022/01/14 06:38:43;;;;;;;;;70.25;53.75;;;;;-0.87;83.66;101221.91;5104276;27;45507;-77
2022/01/14 06:41:08;;;;;;;;;68.50;54.25;;;;;-0.86;83.47;101220.22;5089912;27;47183;-77
2022/01/14 06:43:34;;;;;;;;;75.50;57.00;;;;;-0.87;83.60;101216.75;5100241;27;45492;-77
2022/01/14 06:45:59;;;;;;;;;68.50;54.75;;;;;-0.87;83.59;101227.09;5114629;27;45388;-77
2022/01/14 06:48:25;;;;;;;;;68.00;55.50;;;;;-0.88;83.25;101219.28;5106671;27;45522;-77
2022/01/14 06:50:52;;;;;;;;;69.00;49.25;;;;;-0.87;83.54;101224.50;5095707;27;45311;-77
2022/01/14 06:53:18;;;;;;;;;71.00;58.25;;;;;-0.87;83.55;101223.63;5098697;27;45421;-78
2022/01/14 06:55:43;;;;;;;;;71.50;57.00;;;;;-0.88;84.03;101219.28;5104804;27;45427;-77
2022/01/14 06:58:09;;;;;;;;;69.75;55.00;;;;;-0.89;83.65;101223.56;5105899;27;45423;-77
2022/01/14 07:00:34;;;;;;;;;65.75;46.00;;;;;-0.89;83.46;101214.91;5109571;27;46466;-78
2022/01/14 07:03:01;;;;;;;;;76.25;56.00;;;;;-0.90;83.63;101214.03;5099140;27;45373;-77
2022/01/14 07:05:27;;;;;;;;;73.75;57.25;;;;;-0.90;83.52;101220.91;5109703;27;45481;-78
2022/01/14 07:07:52;;;;;;;;;74.25;56.25;;;;;-0.89;83.60;101212.31;5106343;27;45473;-77
2022/01/14 07:10:17;;;;;;;;;64.75;54.75;;;;;-0.90;83.65;101210.56;5102566;27;46399;-77
2022/01/14 07:12:44;;;;;;;;;71.50;55.75;;;;;-0.91;83.48;101208.78;5105097;27;45463;-77
2022/01/14 07:15:15;;;;;;;;;72.50;58.50;;;;;-0.89;83.66;101208.03;5109417;27;45461;-77
2022/01/14 07:17:42;;;;;;;;;79.75;57.50;;;;;-0.86;84.13;101215.03;5104835;27;45403;-77
2022/01/14 07:20:12;;;;;;;;;70.25;54.25;;;;;-0.88;83.49;101206.31;5113423;27;45698;-77
2022/01/14 07:22:39;;;;;;;;;66.75;51.50;;;;;-0.89;83.89;101205.44;5109538;27;45416;-77
2022/01/14 07:25:05;;;;;;;;;69.75;55.25;;;;;-0.85;83.70;101203.84;5106626;27;45452;-77
2022/01/14 07:27:32;;;;;;;;;71.00;56.00;;;;;-0.85;83.67;101204.75;5107924;27;45425;-77
2022/01/14 07:29:58;;;;;;;;;68.50;54.00;;;;;-0.84;83.90;101196.13;5111048;27;46425;-77
2022/01/14 07:32:23;;;;;;;;;69.50;53.00;;;;;-0.82;83.58;101198.78;5100686;27;45542;-77
2022/01/14 07:34:49;;;;;;;;;79.50;60.75;;;;;-0.82;83.65;101198.78;5096539;27;45256;-77
2022/01/14 07:37:15;;;;;;;;;69.00;57.25;;;;;-0.82;83.53;101199.66;5096092;27;45414;-77
2022/01/14 07:39:41;;;;;;;;;74.75;57.50;;;;;-0.83;83.82;101200.47;5110801;27;46496;-77
2022/01/14 07:42:07;;;;;;;;;64.50;53.25;;;;;-0.84;83.27;101206.47;5104797;27;45176;-77
2022/01/14 07:44:33;;;;;;;;;70.00;58.75;;;;;-0.81;83.45;101211.78;5115055;27;45342;-77
2022/01/14 07:46:58;;;;;;;;;78.75;57.50;;;;;-0.82;83.38;101210.00;5113243;27;45376;-77
2022/01/14 07:49:23;;;;;;;;;58.50;46.50;;;;;-0.82;83.28;101215.19;5102984;27;45454;-77
2022/01/14 07:51:49;;;;;;;;;76.50;60.00;;;;;-0.79;83.61;101219.59;5117370;27;45387;-77
2022/01/14 07:54:15;;;;;;;;;71.25;56.00;;;;;-0.78;83.57;101216.19;5111839;27;45337;-77
2022/01/14 07:56:45;;;;;;;;;78.75;61.00;;;;;-0.75;83.54;101219.81;5104839;27;45511;-78
2022/01/14 07:59:13;;;;;;;;;79.50;59.50;;;;;-0.75;83.22;101218.91;5111645;27;45522;-78
2022/01/14 08:01:39;;;;;;;;;77.25;60.50;;;;;-0.74;83.10;101218.97;5103689;27;45411;-78
2022/01/14 08:04:05;;;;;;;;;80.25;58.00;;;;;-0.71;83.34;101224.28;5097774;27;45588;-76
2022/01/14 08:06:33;;;;;;;;;76.25;58.00;;;;;-0.68;83.27;101220.06;5097570;27;45558;-75
2022/01/14 08:08:59;;;;;;;;;60.25;49.50;;;;;-0.66;83.22;101218.38;5109139;27;45318;-78
2022/01/14 08:11:24;;;;;;;;;79.50;61.75;;;;;-0.61;83.07;101227.22;5080355;27;45441;-78
2022/01/14 08:13:50;;;;;;;;;79.25;62.00;;;;;-0.57;82.67;101223.94;5117216;27;45538;-78
2022/01/14 08:16:15;;;;;;;;;71.25;60.75;;;;;-0.54;82.50;101221.47;5117251;27;45487;-76
2022/01/14 08:18:41;;;;;;;;;79.50;61.00;;;;;-0.51;82.78;101222.47;5117400;27;46685;-78
2022/01/14 08:21:07;;;;;;;;;70.25;57.25;;;;;-0.49;82.86;101228.56;5084560;27;45216;-78
2022/01/14 08:23:32;;;;;;;;;81.00;63.25;;;;;-0.43;82.88;101227.91;5116912;27;45352;-78
2022/01/14 08:25:58;;;;;;;;;71.50;60.50;;;;;-0.43;82.60;101221.03;5116522;27;45377;-77
2022/01/14 08:28:25;;;;;;;;;74.25;56.75;;;;;-0.40;82.04;101215.09;5113224;27;45699;-78
2022/01/14 08:30:50;;;;;;;;;78.50;61.00;;;;;-0.38;82.39;101211.72;5113508;27;45364;-78
2022/01/14 08:33:16;;;;;;;;;76.50;59.50;;;;;-0.30;82.11;101213.69;5116951;27;45467;-77
2022/01/14 08:35:42;;;;;;;;;74.25;58.50;;;;;-0.26;82.04;101224.25;5098568;27;45482;-78
2022/01/14 08:38:07;;;;;;;;;77.75;60.75;;;;;-0.25;81.82;101215.66;5116645;27;45438;-78
2022/01/14 08:40:33;;;;;;;;;80.25;61.25;;;;;-0.16;82.26;101228.06;5098700;27;45774;-75
2022/01/14 08:42:59;;;;;;;;;79.00;61.50;;;;;-0.06;81.67;101227.56;5093524;27;45495;-74
2022/01/14 08:45:25;;;;;;;;;69.00;54.75;;;;;0.02;81.59;101233.03;5117348;27;45463;-75
2022/01/14 08:47:53;;;;;;;;;70.50;54.50;;;;;0.08;81.66;101231.53;5108431;27;46707;-75
2022/01/14 08:50:24;;;;;;;;;78.75;60.75;;;;;0.13;81.64;101230.00;5101570;27;45831;-76
2022/01/14 08:52:50;;;;;;;;;72.00;56.50;;;;;0.15;81.41;101224.88;5102784;27;45443;-75
2022/01/14 08:55:17;;;;;;;;;85.75;62.25;;;;;0.21;81.05;101232.84;5111095;27;45609;-75
2022/01/14 08:57:44;;;;;;;;;78.25;56.25;;;;;0.25;81.25;101219.16;5106654;27;46555;-74
2022/01/14 09:00:11;;;;;;;;;76.00;59.75;;;;;0.28;81.16;101219.28;5115331;27;45398;-75
2022/01/14 09:02:36;;;;;;;;;79.00;61.25;;;;;0.31;81.06;101222.00;5115329;27;45434;-74
2022/01/14 09:05:03;;;;;;;;;78.75;58.75;;;;;0.36;80.80;101220.41;5116534;27;45367;-75
2022/01/14 09:07:28;;;;;;;;;78.50;59.00;;;;;0.41;81.11;101218.88;5116560;27;46568;-75
2022/01/14 09:09:55;;;;;;;;;75.00;58.00;;;;;0.47;80.92;101215.63;5116657;27;45423;-75
2022/01/14 09:12:21;;;;;;;;;78.25;63.25;;;;;0.54;80.72;101207.19;5117398;27;45653;-75
2022/01/14 09:14:46;;;;;;;;;79.75;60.50;;;;;0.61;80.77;101209.16;5116224;27;45348;-74
2022/01/14 09:17:12;;;;;;;;;79.00;57.50;;;;;0.67;80.67;101202.44;5116010;27;45416;-74
2022/01/14 09:19:39;;;;;;;;;79.00;60.25;;;;;0.79;80.71;101206.31;5097528;27;45531;-75
2022/01/14 09:22:05;;;;;;;;;85.50;59.50;;;;;0.86;80.34;101213.44;5086328;27;45448;-75
2022/01/14 09:24:30;;;;;;;;;69.00;54.75;;;;;0.93;80.22;101205.03;5116170;27;45504;-75
2022/01/14 09:26:56;;;;;;;;;79.75;57.75;;;;;0.99;80.13;101203.53;5107851;27;46284;-73
2022/01/14 09:29:21;;;;;;;;;75.75;59.25;;;;;1.08;79.64;101215.91;5109818;27;45461;-73
2022/01/14 09:31:47;;;;;;;;;77.25;58.00;;;;;1.13;79.65;101203.94;5101350;27;45425;-75
2022/01/14 09:34:12;;;;;;;;;76.25;60.25;;;;;1.19;79.34;101204.13;5107380;27;45489;-74
2022/01/14 09:36:37;;;;;;;;;28.75;16.75;;;;;1.23;78.91;101205.09;5104329;27;45412;-75
2022/01/14 09:39:04;;;;;;;;;69.75;54.50;;;;;1.27;78.73;101202.66;5108683;27;45480;-75
2022/01/14 09:41:29;;;;;;;;;74.00;56.75;;;;;1.29;78.84;101203.59;5088536;27;45572;-75
2022/01/14 09:43:55;;;;;;;;;71.50;54.00;;;;;1.34;78.55;101207.19;5094985;27;45510;-75
2022/01/14 09:46:21;;;;;;;;;69.25;56.75;;;;;1.42;79.00;101201.34;5107153;27;45378;-76
2022/01/14 09:48:50;;;;;;;;;76.00;59.50;;;;;1.48;78.50;101197.22;5104663;27;45332;-75
2022/01/14 09:51:16;;;;;;;;;80.50;60.75;;;;;1.55;78.52;101201.75;5101557;27;45510;-75
2022/01/14 09:53:42;;;;;;;;;75.25;58.25;;;;;1.63;78.49;101191.59;5106048;27;45508;-76
2022/01/14 09:56:07;;;;;;;;;72.50;58.75;;;;;1.70;78.24;101191.81;5106984;27;46504;-75
2022/01/14 09:58:37;;;;;;;;;68.25;53.75;;;;;1.75;77.98;101192.81;5107481;27;45417;-75
2022/01/14 10:01:10;;;;;;;;;67.00;54.00;;;;;1.80;77.57;101187.75;5103060;27;45505;-74
2022/01/14 10:03:54;;;;;;;;;72.50;55.25;;;;;1.86;77.53;101190.50;5100567;27;45645;-74
2022/01/14 10:06:51;;;;;;;;;70.00;54.75;;;;;1.94;77.44;101189.03;5096285;27;46774;-76
2022/01/14 10:09:21;;;;;;;;;74.00;55.25;;;;;2.00;77.26;101190.94;5102102;27;45558;-75
2022/01/14 10:12:02;;;;;;;;;73.25;58.25;;;;;2.07;77.65;101192.84;5099907;27;45329;-75
2022/01/14 10:14:28;;;;;;;;;74.25;59.50;;;;;2.15;76.96;101182.66;5115288;27;45534;-75
2022/01/14 10:16:56;;;;;;;;;77.50;57.50;;;;;2.24;77.31;101182.88;5108924;27;45359;-75
2022/01/14 10:19:23;;;;;;;;;74.75;59.00;;;;;2.30;76.37;101183.06;5087965;27;45546;-76
2022/01/14 10:21:50;;;;;;;;;68.00;55.75;;;;;2.33;76.25;101181.44;5101947;27;45527;-75
2022/01/14 10:24:15;;;;;;;;;68.00;52.75;;;;;2.38;76.02;101172.00;5082244;27;45290;-74
2022/01/14 10:27:07;;;;;;;;;67.25;53.75;;;;;2.40;75.92;101162.50;5111654;27;45998;-76
2022/01/14 10:29:38;;;;;;;;;66.50;54.50;;;;;2.44;75.99;101161.75;5104413;27;45542;-74
2022/01/14 10:32:07;;;;;;;;;64.25;51.25;;;;;2.50;75.67;101155.81;5111060;27;45486;-74
2022/01/14 10:34:33;;;;;;;;;62.00;47.75;;;;;2.54;75.71;101149.81;5110422;27;45464;-61
2022/01/14 10:37:10;;;;;;;;;65.25;51.25;;;;;2.59;75.51;101142.13;5094069;27;45645;-59
2022/01/14 10:39:52;;;;;;;;;59.00;47.00;;;;;2.63;75.19;101139.66;5103649;27;45408;-59
2022/01/14 10:42:35;;;;;;;;;54.33;46.00;;;;;2.67;74.99;101136.28;5100072;27;45430;-60
2022/01/14 10:45:22;;;;;;;;;58.00;47.00;;;;;2.73;74.97;101136.41;5107812;27;45451;-60
2022/01/14 10:48:03;;;;;;;;;43.00;38.67;;;;;2.79;74.70;101120.06;5109294;27;46472;-60
2022/01/14 10:51:18;;;;;;;;;63.25;52.25;;;;;2.84;74.55;101109.75;5112365;27;45489;-60
2022/01/14 10:53:53;;;;;;;;;68.33;52.33;;;;;2.91;74.36;101106.44;5087330;27;45373;-61
2022/01/14 10:56:25;;;;;;;;;64.50;51.25;;;;;2.97;74.25;101104.88;5114730;27;45439;-60
2022/01/14 10:58:56;;;;;;;;;64.25;48.00;;;;;3.04;74.47;101104.13;5104194;27;45975;-60
2022/01/14 11:01:24;;;;;;;;;63.67;51.33;;;;;3.11;73.96;101093.00;5107319;27;45478;-60
2022/01/14 11:04:02;;;;;;;;;63.67;50.67;;;;;3.17;73.89;101088.78;5105952;27;45444;-60
2022/01/14 11:06:31;;;;;;;;;62.33;47.67;;;;;3.25;73.71;101089.81;5114486;27;45418;-60
2022/01/14 11:09:07;;;;;;;;;66.67;50.67;;;;;3.32;73.30;101081.28;5091667;27;48167;-60
2022/01/14 11:11:36;;;;;;;;;53.33;44.67;;;;;3.38;73.22;101076.16;5098603;27;45510;-60
2022/01/14 11:14:03;;;;;;;;;62.33;46.33;;;;;3.43;73.28;101071.94;5107263;27;45416;-61
2022/01/14 11:16:29;;;;;;;;;54.33;44.67;;;;;3.50;72.87;101066.91;5116513;27;45535;-61
2022/01/14 11:19:00;;;;;;;;;53.00;44.67;;;;;3.55;72.72;101061.75;5116039;27;45894;-60
2022/01/14 11:24:15;;;;;;;;;63.00;49.00;;;;;3.69;71.85;101055.06;5112232;27;45357;-61
2022/01/14 11:26:43;;;;;;;;;66.00;52.25;;;;;3.77;72.30;101044.78;5111534;27;45455;-61
2022/01/14 11:29:15;;;;;;;;;62.67;49.33;;;;;3.83;71.64;101039.69;5111318;27;46003;-61
2022/01/14 11:31:42;;;;;;;;;64.67;49.33;;;;;3.89;72.21;101036.28;5088938;27;45459;-61
2022/01/14 11:34:30;;;;;;;;;69.75;53.75;;;;;3.97;72.19;101034.69;5085696;27;45490;-61
2022/01/14 11:37:02;;;;;;;;;71.75;55.25;;;;;4.00;71.84;101025.19;5114681;27;45489;-61
2022/01/14 11:39:31;;;;;;;;;67.50;54.75;;;;;4.08;71.59;101017.47;5107750;27;46030;-61